Time;durP1;ratioP1;P1;durP2;ratioP2;P2;SDS_P1;SDS_P2;PMS_P1;PMS_P2;Temp;Humidity;BMP_temperature;BMP_pressure;BME280_temperature;BME280_humidity;BME280_pressure;Samples;Min_cycle;Max_cycle;Signal;HPM_P1;HPM_P2
2021/09/01 00:00:44;;;;;;;0.00;0.00;;;17.90;72.70;;;;;;4883495;29;20059;-73
2021/09/01 00:03:09;;;;;;;0.00;0.00;;;17.90;72.70;;;;;;4900317;29;20025;-75
2021/09/01 00:05:35;;;;;;;0.00;0.00;;;17.90;72.80;;;;;;4883345;29;20176;-72
2021/09/01 00:08:01;;;;;;;0.00;0.00;;;17.80;73.00;;;;;;4900005;29;20029;-73
2021/09/01 00:10:27;;;;;;;0.00;0.00;;;17.80;73.00;;;;;;4900837;29;20051;-73
2021/09/01 00:12:53;;;;;;;0.00;0.00;;;17.80;73.10;;;;;;4899999;29;20029;-73
2021/09/01 00:15:19;;;;;;;0.00;0.00;;;17.80;73.20;;;;;;4899651;29;20119;-73
2021/09/01 00:17:44;;;;;;;0.00;0.00;;;17.70;73.30;;;;;;4899864;29;20075;-72
2021/09/01 00:20:11;;;;;;;0.00;0.00;;;17.70;73.40;;;;;;4899443;29;20115;-73
2021/09/01 00:22:38;;;;;;;0.00;0.00;;;17.70;73.50;;;;;;4899203;29;20080;-74
2021/09/01 00:25:06;;;;;;;0.00;0.00;;;17.70;73.70;;;;;;4899783;29;20032;-72
2021/09/01 00:27:32;;;;;;;0.00;0.00;;;17.70;73.70;;;;;;4899958;29;20056;-73
2021/09/01 00:29:58;;;;;;;0.00;0.00;;;17.60;73.70;;;;;;4899682;29;20052;-74
2021/09/01 00:32:24;;;;;;;0.00;0.00;;;17.60;73.80;;;;;;4899659;29;20025;-75
2021/09/01 00:34:50;;;;;;;0.00;0.00;;;17.60;73.90;;;;;;4899308;29;20040;-74
2021/09/01 00:37:16;;;;;;;0.00;0.00;;;17.60;74.00;;;;;;4899405;29;20418;-74
2021/09/01 00:39:42;;;;;;;0.00;0.00;;;17.50;73.90;;;;;;4899502;29;20021;-74
2021/09/01 00:42:09;;;;;;;0.00;0.00;;;17.50;73.90;;;;;;4899137;29;20025;-73
2021/09/01 00:44:38;;;;;;;0.00;0.00;;;17.50;74.00;;;;;;4899406;29;20039;-72
2021/09/01 00:47:05;;;;;;;0.00;0.00;;;17.50;74.20;;;;;;4882721;29;20469;-73
2021/09/01 00:49:31;;;;;;;0.00;0.00;;;17.50;74.20;;;;;;4882411;29;20040;-74
2021/09/01 00:51:58;;;;;;;0.00;0.00;;;17.40;74.20;;;;;;4898962;29;20492;-74
2021/09/01 00:54:26;;;;;;;0.00;0.00;;;17.40;74.30;;;;;;4898941;29;20381;-73
2021/09/01 00:56:59;;;;;;;0.00;0.00;;;17.40;74.40;;;;;;4883076;29;20041;-73
2021/09/01 00:59:30;;;;;;;0.00;0.00;;;17.40;74.50;;;;;;4899102;29;20116;-73
2021/09/01 01:01:57;;;;;;;0.00;0.00;;;17.40;74.60;;;;;;4898769;29;20528;-73
2021/09/01 01:04:36;;;;;;;0.00;0.00;;;17.30;74.70;;;;;;4898962;29;20165;-73
2021/09/01 01:07:03;;;;;;;0.00;0.00;;;17.30;75.10;;;;;;4882183;29;20120;-73
2021/09/01 01:09:34;;;;;;;0.00;0.00;;;17.20;75.20;;;;;;4898966;29;20036;-74
2021/09/01 01:12:20;;;;;;;0.00;0.00;;;17.20;75.50;;;;;;4899005;29;20392;-72
2021/09/01 01:14:53;;;;;;;0.00;0.00;;;17.20;75.70;;;;;;4898913;29;20036;-74
2021/09/01 01:17:20;;;;;;;0.00;0.00;;;17.10;75.80;;;;;;4898785;29;20504;-73
2021/09/01 01:19:51;;;;;;;0.00;0.00;;;17.10;76.00;;;;;;4899072;29;20033;-74
2021/09/01 01:22:22;;;;;;;0.00;0.00;;;17.10;76.30;;;;;;4898699;29;20054;-73
2021/09/01 01:24:52;;;;;;;0.00;0.00;;;17.10;76.50;;;;;;4882063;29;20484;-74
2021/09/01 01:27:39;;;;;;;0.00;0.00;;;17.00;77.30;;;;;;4898762;29;20036;-74
2021/09/01 01:30:18;;;;;;;0.00;0.00;;;17.00;76.70;;;;;;4883040;29;20445;-73
2021/09/01 01:32:47;;;;;;;0.00;0.00;;;17.00;76.80;;;;;;4881928;29;20389;-74
2021/09/01 01:35:34;;;;;;;0.00;0.00;;;16.90;76.90;;;;;;4898464;29;20031;-73
2021/09/01 01:38:02;;;;;;;0.00;0.00;;;16.90;77.30;;;;;;4898552;29;20055;-73
2021/09/01 01:40:28;;;;;;;0.00;0.00;;;16.80;77.40;;;;;;4898933;29;20059;-73
2021/09/01 01:42:55;;;;;;;0.00;0.00;;;16.80;77.50;;;;;;4898494;29;20092;-73
2021/09/01 01:45:23;;;;;;;0.00;0.00;;;16.80;77.60;;;;;;4898624;29;20029;-73
2021/09/01 01:47:49;;;;;;;0.00;0.00;;;16.80;77.70;;;;;;4898637;29;20032;-73
2021/09/01 01:50:15;;;;;;;0.00;0.00;;;16.70;77.80;;;;;;4881734;29;20085;-73
2021/09/01 01:52:41;;;;;;;0.00;0.00;;;16.70;78.00;;;;;;4898771;29;20037;-74
2021/09/01 01:55:09;;;;;;;0.00;0.00;;;16.70;78.00;;;;;;4898514;29;20080;-73
2021/09/01 01:57:35;;;;;;;0.00;0.00;;;16.60;78.10;;;;;;4898711;29;20076;-74
2021/09/01 02:00:03;;;;;;;0.00;0.00;;;16.60;78.00;;;;;;4898414;29;20421;-74
2021/09/01 02:02:32;;;;;;;0.00;0.00;;;16.60;78.20;;;;;;4898179;29;20084;-73
2021/09/01 02:04:58;;;;;;;0.00;0.00;;;16.50;78.30;;;;;;4898335;29;20029;-75
2021/09/01 02:07:25;;;;;;;0.00;0.00;;;16.50;78.40;;;;;;4898308;29;20036;-73
2021/09/01 02:09:51;;;;;;;0.00;0.00;;;16.50;78.40;;;;;;4898132;29;20033;-73
2021/09/01 02:12:17;;;;;;;0.00;0.00;;;16.50;78.40;;;;;;4898129;29;20029;-72
2021/09/01 02:14:42;;;;;;;0.00;0.00;;;16.60;78.50;;;;;;4898119;29;20032;-72
2021/09/01 02:17:08;;;;;;;0.00;0.00;;;16.60;78.30;;;;;;4898856;29;20093;-72
2021/09/01 02:19:34;;;;;;;0.00;0.00;;;16.60;78.20;;;;;;4897977;29;20545;-73
2021/09/01 02:22:00;;;;;;;0.00;0.00;;;16.60;78.20;;;;;;4897880;29;20059;-72
2021/09/01 02:24:26;;;;;;;0.00;0.00;;;16.50;78.20;;;;;;4897887;29;20389;-72
2021/09/01 02:26:52;;;;;;;0.00;0.00;;;16.50;78.40;;;;;;4898170;29;20409;-73
2021/09/01 02:29:18;;;;;;;0.00;0.00;;;16.50;78.40;;;;;;4898057;29;20039;-73
2021/09/01 02:31:44;;;;;;;0.00;0.00;;;16.50;78.30;;;;;;4898114;29;20080;-72
2021/09/01 02:34:09;;;;;;;0.00;0.00;;;16.40;78.30;;;;;;4897949;29;20033;-72
2021/09/01 02:36:36;;;;;;;0.00;0.00;;;16.40;78.50;;;;;;4898042;29;20032;-74
2021/09/01 02:39:02;;;;;;;0.00;0.00;;;16.40;78.60;;;;;;4898628;29;20044;-72
2021/09/01 02:41:28;;;;;;;0.00;0.00;;;16.40;78.70;;;;;;4897713;29;20434;-72
2021/09/01 02:43:53;;;;;;;0.00;0.00;;;16.40;78.80;;;;;;4900141;29;20032;-73
2021/09/01 02:46:22;;;;;;;0.00;0.00;;;16.30;79.00;;;;;;4884576;29;20119;-72
2021/09/01 02:48:48;;;;;;;0.00;0.00;;;16.30;79.10;;;;;;4901325;29;20029;-73
2021/09/01 02:51:14;;;;;;;0.00;0.00;;;16.30;79.20;;;;;;4901320;29;20036;-73
2021/09/01 02:53:39;;;;;;;0.00;0.00;;;16.30;79.30;;;;;;4885067;29;20207;-72
2021/09/01 02:56:05;;;;;;;0.00;0.00;;;16.20;79.20;;;;;;4901279;29;20037;-73
2021/09/01 02:58:31;;;;;;;0.00;0.00;;;16.20;79.30;;;;;;4901222;29;20028;-73
2021/09/01 03:00:57;;;;;;;0.00;0.00;;;16.20;79.40;;;;;;4901231;29;20028;-73
2021/09/01 03:03:23;;;;;;;0.00;0.00;;;16.10;79.50;;;;;;4884334;29;20084;-73
2021/09/01 03:05:48;;;;;;;0.00;0.00;;;16.10;79.70;;;;;;4884158;29;20529;-73
2021/09/01 03:08:15;;;;;;;0.00;0.00;;;16.00;79.80;;;;;;4901343;29;20092;-73
2021/09/01 03:10:41;;;;;;;0.00;0.00;;;16.00;80.00;;;;;;4900694;29;20036;-73
2021/09/01 03:13:06;;;;;;;0.00;0.00;;;16.00;80.10;;;;;;4901008;29;20389;-73
2021/09/01 03:15:32;;;;;;;0.00;0.00;;;16.00;80.10;;;;;;4900925;29;20032;-74
2021/09/01 03:17:58;;;;;;;0.00;0.00;;;16.00;80.10;;;;;;4901061;29;20032;-73
2021/09/01 03:20:24;;;;;;;0.00;0.00;;;16.00;79.90;;;;;;4900583;29;20076;-73
2021/09/01 03:22:50;;;;;;;0.00;0.00;;;16.00;79.80;;;;;;4884771;29;20032;-73
2021/09/01 03:25:16;;;;;;;0.00;0.00;;;16.10;79.70;;;;;;4901230;29;20029;-73
2021/09/01 03:27:41;;;;;;;0.00;0.00;;;16.10;79.70;;;;;;4901144;29;20036;-74
2021/09/01 03:30:08;;;;;;;0.00;0.00;;;16.10;79.60;;;;;;4900696;29;20049;-73
2021/09/01 03:32:34;;;;;;;0.00;0.00;;;16.10;79.50;;;;;;4900736;29;20059;-74
2021/09/01 03:34:59;;;;;;;0.00;0.00;;;16.20;79.40;;;;;;4900461;29;20116;-74
2021/09/01 03:37:25;;;;;;;0.00;0.00;;;16.20;79.30;;;;;;4900369;29;20065;-75
2021/09/01 03:39:52;;;;;;;0.00;0.00;;;16.20;79.20;;;;;;4900634;29;20445;-73
2021/09/01 03:42:18;;;;;;;0.00;0.00;;;16.20;79.00;;;;;;4900869;29;20037;-73
2021/09/01 03:44:44;;;;;;;0.00;0.00;;;16.20;78.90;;;;;;4900531;29;20031;-73
2021/09/01 03:47:09;;;;;;;0.00;0.00;;;16.30;78.90;;;;;;4900495;29;20054;-73
2021/09/01 03:49:35;;;;;;;0.00;0.00;;;16.30;78.70;;;;;;4900384;29;20033;-73
2021/09/01 03:52:01;;;;;;;0.00;0.00;;;16.40;78.50;;;;;;4900359;29;20024;-73
2021/09/01 03:54:27;;;;;;;0.00;0.00;;;16.40;78.30;;;;;;4898931;29;20056;-74
2021/09/01 03:56:53;;;;;;;0.00;0.00;;;16.50;77.90;;;;;;4900081;29;20072;-73
2021/09/01 03:59:18;;;;;;;0.00;0.00;;;16.60;77.60;;;;;;4900441;29;20039;-73
2021/09/01 04:01:44;;;;;;;0.00;0.00;;;16.60;77.40;;;;;;4900465;29;20440;-73
2021/09/01 04:04:10;;;;;;;0.00;0.00;;;16.70;77.20;;;;;;4900352;29;20068;-73
2021/09/01 04:06:35;;;;;;;0.00;0.00;;;16.70;77.00;;;;;;4883431;29;20032;-74
2021/09/01 04:09:01;;;;;;;0.00;0.00;;;16.80;76.80;;;;;;4883622;29;20033;-74
2021/09/01 04:11:27;;;;;;;0.00;0.00;;;16.80;76.60;;;;;;4900016;29;20483;-73
2021/09/01 04:13:53;;;;;;;0.00;0.00;;;16.80;76.40;;;;;;4899589;29;20067;-73
2021/09/01 04:16:19;;;;;;;0.00;0.00;;;16.80;76.20;;;;;;4899427;29;20041;-72
2021/09/01 04:18:45;;;;;;;0.00;0.00;;;16.90;76.30;;;;;;4899995;29;20426;-74
2021/09/01 04:21:11;;;;;;;0.00;0.00;;;16.90;76.10;;;;;;4899404;29;20060;-74
2021/09/01 04:23:37;;;;;;;0.00;0.00;;;16.90;75.80;;;;;;4900008;29;20409;-73
2021/09/01 04:26:03;;;;;;;0.00;0.00;;;17.00;75.70;;;;;;4899367;29;20029;-73
2021/09/01 04:28:29;;;;;;;0.00;0.00;;;17.00;75.50;;;;;;4899648;29;20040;-74
2021/09/01 04:30:55;;;;;;;0.00;0.00;;;17.00;75.40;;;;;;4899485;29;20048;-74
2021/09/01 04:33:20;;;;;;;0.00;0.00;;;17.10;75.40;;;;;;4899825;29;20044;-74
2021/09/01 04:35:46;;;;;;;0.00;0.00;;;17.10;75.20;;;;;;4882542;29;20036;-74
2021/09/01 04:38:12;;;;;;;0.00;0.00;;;17.20;75.00;;;;;;4882570;29;20037;-74
2021/09/01 04:40:38;;;;;;;0.00;0.00;;;17.20;75.00;;;;;;4899375;29;20051;-75
2021/09/01 04:43:04;;;;;;;0.00;0.00;;;17.30;75.10;;;;;;4899978;29;20079;-73
2021/09/01 04:45:29;;;;;;;0.00;0.00;;;17.40;74.80;;;;;;4881915;29;20051;-73
2021/09/01 04:47:55;;;;;;;0.00;0.00;;;17.50;74.60;;;;;;4899476;29;20029;-73
2021/09/01 04:50:21;;;;;;;0.00;0.00;;;17.60;74.30;;;;;;4899160;29;20049;-75
2021/09/01 04:52:47;;;;;;;0.00;0.00;;;17.70;74.20;;;;;;4882244;29;20075;-74
2021/09/01 04:55:15;;;;;;;0.00;0.00;;;17.70;73.90;;;;;;4898967;29;20025;-74
2021/09/01 04:57:53;;;;;;;0.00;0.00;;;17.90;73.80;;;;;;4898798;29;20080;-75
2021/09/01 05:00:21;;;;;;;0.00;0.00;;;17.90;73.70;;;;;;4899224;29;20084;-74
2021/09/01 05:02:46;;;;;;;0.00;0.00;;;18.00;73.70;;;;;;4898782;29;20024;-74
2021/09/01 05:05:13;;;;;;;0.00;0.00;;;18.10;73.50;;;;;;4881542;29;20032;-74
2021/09/01 05:07:38;;;;;;;0.00;0.00;;;18.10;73.50;;;;;;4898701;29;20076;-73
2021/09/01 05:10:05;;;;;;;0.00;0.00;;;18.20;73.10;;;;;;4898473;29;20036;-75
2021/09/01 05:12:31;;;;;;;0.00;0.00;;;18.30;72.90;;;;;;4898917;29;20127;-73
2021/09/01 05:14:57;;;;;;;0.00;0.00;;;18.40;72.60;;;;;;4899046;29;20513;-75
2021/09/01 05:17:24;;;;;;;0.00;0.00;;;18.50;72.20;;;;;;4881928;29;20393;-74
2021/09/01 05:19:49;;;;;;;0.00;0.00;;;18.60;71.80;;;;;;4881954;29;20120;-74
2021/09/01 05:22:19;;;;;;;0.00;0.00;;;18.70;71.70;;;;;;4899098;29;20028;-74
2021/09/01 05:25:03;;;;;;;0.00;0.00;;;18.90;71.40;;;;;;4898350;29;20039;-74
2021/09/01 05:27:32;;;;;;;0.00;0.00;;;19.00;70.30;;;;;;4881816;29;20028;-74
2021/09/01 05:30:00;;;;;;;0.28;0.00;;;19.20;69.60;;;;;;4898319;29;20426;-74
2021/09/01 05:32:28;;;;;;;0.00;0.00;;;19.40;69.10;;;;;;4881625;29;20038;-74
2021/09/01 05:35:01;;;;;;;0.00;0.00;;;19.60;68.90;;;;;;4898758;29;20091;-73
2021/09/01 05:37:28;;;;;;;0.00;0.00;;;19.80;68.40;;;;;;4898232;29;20032;-74
2021/09/01 05:39:57;;;;;;;0.00;0.00;;;20.00;67.90;;;;;;4898538;29;20032;-74
2021/09/01 05:42:25;;;;;;;0.00;0.00;;;20.20;67.00;;;;;;4898402;29;20025;-74
2021/09/01 05:44:51;;;;;;;0.00;0.00;;;20.40;66.40;;;;;;4898959;29;20525;-73
2021/09/01 05:47:19;;;;;;;0.00;0.00;;;20.50;65.80;;;;;;4898135;29;20501;-73
2021/09/01 05:49:46;;;;;;;0.00;0.00;;;20.70;65.30;;;;;;4898663;29;20032;-74
2021/09/01 05:52:13;;;;;;;0.00;0.00;;;20.80;65.00;;;;;;4898599;29;20037;-74
2021/09/01 05:54:44;;;;;;;0.10;0.00;;;20.90;64.90;;;;;;4898585;29;20465;-75
2021/09/01 05:57:16;;;;;;;0.00;0.00;;;21.00;64.80;;;;;;4897946;29;20040;-74
2021/09/01 06:00:03;;;;;;;0.00;0.00;;;21.10;64.60;;;;;;4898284;29;20493;-73
2021/09/01 06:02:32;;;;;;;0.00;0.00;;;21.30;64.30;;;;;;4899249;29;20040;-73
2021/09/01 06:05:02;;;;;;;0.00;0.00;;;21.50;64.10;;;;;;4898094;29;20029;-74
2021/09/01 06:07:30;;;;;;;0.00;0.00;;;21.70;63.10;;;;;;4898110;29;20486;-74
2021/09/01 06:09:58;;;;;;;0.00;0.00;;;21.80;62.30;;;;;;4898405;29;20060;-74
2021/09/01 06:12:26;;;;;;;0.00;0.00;;;21.80;61.70;;;;;;4898837;29;20466;-74
2021/09/01 06:14:53;;;;;;;0.00;0.00;;;21.90;61.40;;;;;;4881544;29;20123;-75
2021/09/01 06:17:19;;;;;;;0.00;0.00;;;22.00;61.40;;;;;;4897802;29;20036;-75
2021/09/01 06:19:45;;;;;;;0.00;0.00;;;22.00;61.20;;;;;;4902322;29;20092;-76
2021/09/01 06:22:12;;;;;;;0.00;0.00;;;22.10;61.00;;;;;;4902215;29;20092;-75
2021/09/01 06:24:37;;;;;;;0.00;0.00;;;22.20;60.80;;;;;;4901860;29;20033;-74
2021/09/01 06:27:03;;;;;;;0.00;0.00;;;22.20;60.30;;;;;;4901696;29;20043;-75
2021/09/01 06:29:29;;;;;;;0.00;0.00;;;22.20;60.00;;;;;;4885317;29;20120;-74
2021/09/01 06:31:55;;;;;;;0.00;0.00;;;22.30;59.60;;;;;;4901622;29;20036;-74
2021/09/01 06:34:21;;;;;;;0.00;0.00;;;22.30;59.40;;;;;;4901658;29;20028;-74
2021/09/01 06:36:47;;;;;;;0.00;0.00;;;22.40;59.40;;;;;;4901985;29;20088;-74
2021/09/01 06:39:13;;;;;;;0.00;0.00;;;22.40;59.30;;;;;;4902048;29;20033;-73
2021/09/01 06:41:39;;;;;;;0.00;0.00;;;22.40;59.40;;;;;;4901383;29;20107;-74
2021/09/01 06:44:05;;;;;;;0.00;0.00;;;22.50;59.50;;;;;;4901139;29;20032;-74
2021/09/01 06:46:31;;;;;;;0.00;0.00;;;22.50;59.40;;;;;;4901334;29;20115;-73
2021/09/01 06:48:57;;;;;;;0.00;0.00;;;22.60;59.40;;;;;;4901556;29;20492;-72
2021/09/01 06:51:22;;;;;;;0.00;0.00;;;22.60;59.00;;;;;;4901343;29;20033;-74
2021/09/01 06:53:48;;;;;;;0.00;0.00;;;22.80;58.70;;;;;;4901641;29;20115;-73
2021/09/01 06:56:14;;;;;;;0.00;0.00;;;22.80;58.40;;;;;;4901278;29;20088;-74
2021/09/01 06:58:40;;;;;;;0.00;0.00;;;22.80;58.20;;;;;;4901164;29;20107;-74
2021/09/01 07:01:05;;;;;;;0.00;0.00;;;22.80;58.00;;;;;;4901047;29;20025;-75
2021/09/01 07:03:31;;;;;;;0.00;0.00;;;22.80;57.80;;;;;;4900991;29;20433;-75
2021/09/01 07:05:57;;;;;;;0.00;0.00;;;22.90;57.50;;;;;;4900961;29;20477;-74
2021/09/01 07:08:23;;;;;;;0.00;0.00;;;22.90;57.50;;;;;;4900901;29;20088;-74
2021/09/01 07:10:51;;;;;;;0.00;0.00;;;23.00;57.50;;;;;;4900929;29;20516;-73
2021/09/01 07:13:17;;;;;;;0.00;0.00;;;23.10;56.90;;;;;;4901115;29;20084;-73
2021/09/01 07:15:43;;;;;;;0.00;0.00;;;23.10;56.60;;;;;;4900526;29;20092;-74
2021/09/01 07:18:10;;;;;;;0.00;0.00;;;23.20;56.80;;;;;;4884352;29;20470;-75
2021/09/01 07:20:37;;;;;;;0.00;0.00;;;23.30;56.50;;;;;;4900565;29;20544;-75
2021/09/01 07:23:03;;;;;;;0.00;0.00;;;23.40;56.30;;;;;;4884523;29;20051;-73
2021/09/01 07:25:29;;;;;;;0.00;0.00;;;23.50;55.90;;;;;;4900764;29;20029;-77
2021/09/01 07:28:03;;;;;;;0.00;0.00;;;23.60;55.70;;;;;;4900469;29;20496;-74
2021/09/01 07:30:29;;;;;;;0.00;0.00;;;23.70;55.20;;;;;;4900328;29;20052;-74
2021/09/01 07:32:56;;;;;;;0.00;0.00;;;23.80;55.00;;;;;;4883465;29;20044;-74
2021/09/01 07:35:22;;;;;;;0.00;0.00;;;24.00;54.70;;;;;;4883931;29;20119;-76
2021/09/01 07:37:50;;;;;;;0.00;0.00;;;24.10;54.50;;;;;;4901471;29;20046;-75
2021/09/01 07:40:31;;;;;;;0.00;0.00;;;24.30;54.20;;;;;;4900571;29;20052;-75
2021/09/01 07:43:00;;;;;;;0.00;0.00;;;24.40;53.50;;;;;;4900209;29;20037;-75
2021/09/01 07:45:36;;;;;;;0.00;0.00;;;24.50;53.00;;;;;;4901404;29;20091;-75
2021/09/01 07:48:13;;;;;;;0.00;0.00;;;24.70;52.60;;;;;;4900991;29;20060;-75
2021/09/01 07:50:45;;;;;;;0.00;0.00;;;24.80;52.30;;;;;;4900839;29;20063;-74
2021/09/01 07:53:17;;;;;;;0.00;0.00;;;25.00;52.10;;;;;;4900881;29;20084;-74
2021/09/01 07:55:43;;;;;;;0.00;0.00;;;25.10;51.40;;;;;;4883928;29;20029;-74
2021/09/01 07:58:08;;;;;;;0.00;0.00;;;25.20;51.40;;;;;;4900182;29;20036;-73
2021/09/01 08:00:35;;;;;;;0.00;0.00;;;25.20;51.10;;;;;;4883565;29;20035;-75
2021/09/01 08:03:01;;;;;;;0.00;0.00;;;25.40;50.70;;;;;;4899885;29;20059;-74
2021/09/01 08:05:26;;;;;;;0.00;0.00;;;25.50;50.40;;;;;;4900282;29;20471;-75
2021/09/01 08:07:52;;;;;;;0.00;0.00;;;25.60;49.80;;;;;;4899700;29;20032;-74
2021/09/01 08:10:18;;;;;;;0.00;0.00;;;25.80;49.70;;;;;;4883144;29;20033;-74
2021/09/01 08:12:44;;;;;;;0.00;0.00;;;26.00;49.40;;;;;;4899703;29;20087;-75
2021/09/01 08:15:11;;;;;;;0.00;0.00;;;26.20;49.20;;;;;;4899661;29;20031;-74
2021/09/01 08:17:37;;;;;;;0.00;0.00;;;26.40;49.00;;;;;;4899527;29;20131;-75
2021/09/01 08:20:03;;;;;;;0.00;0.00;;;26.70;48.90;;;;;;4899376;29;20032;-73
2021/09/01 08:22:28;;;;;;;0.00;0.00;;;26.90;48.50;;;;;;4899325;29;20083;-75
2021/09/01 08:24:54;;;;;;;0.00;0.00;;;27.10;47.90;;;;;;4883365;29;20040;-74
2021/09/01 08:27:20;;;;;;;0.00;0.00;;;27.40;47.50;;;;;;4899787;29;20044;-74
2021/09/01 08:29:46;;;;;;;0.00;0.00;;;27.70;46.60;;;;;;4899403;29;20096;-74
2021/09/01 08:32:12;;;;;;;0.00;0.00;;;27.90;46.40;;;;;;4899820;29;20039;-75
2021/09/01 08:34:38;;;;;;;0.00;0.00;;;28.10;45.80;;;;;;4899362;29;20152;-74
2021/09/01 08:37:05;;;;;;;0.00;0.00;;;28.20;45.40;;;;;;4900118;29;20044;-75
2021/09/01 08:39:31;;;;;;;0.00;0.00;;;28.40;45.40;;;;;;4899691;29;20040;-74
2021/09/01 08:41:57;;;;;;;0.00;0.00;;;28.60;44.80;;;;;;4898574;29;20392;-74
2021/09/01 08:44:23;;;;;;;0.00;0.00;;;28.90;44.60;;;;;;4899007;29;20033;-73
2021/09/01 08:46:50;;;;;;;0.00;0.00;;;28.90;44.80;;;;;;4899149;29;20032;-74
2021/09/01 08:49:19;;;;;;;0.00;0.00;;;28.80;44.00;;;;;;4899670;29;20441;-74
2021/09/01 08:51:46;;;;;;;0.00;0.00;;;28.70;43.80;;;;;;4899790;29;20471;-75
2021/09/01 08:54:14;;;;;;;0.00;0.00;;;28.80;43.90;;;;;;4899548;29;20039;-76
2021/09/01 08:56:39;;;;;;;0.00;0.00;;;28.90;43.50;;;;;;4882210;29;20382;-75
2021/09/01 08:59:05;;;;;;;0.00;0.00;;;28.80;43.80;;;;;;4899078;29;20032;-75
2021/09/01 09:01:46;;;;;;;0.00;0.00;;;28.80;43.80;;;;;;4898754;29;20047;-74
2021/09/01 09:04:19;;;;;;;0.00;0.00;;;28.90;43.60;;;;;;4881840;29;20116;-76
2021/09/01 09:06:56;;;;;;;0.00;0.00;;;28.80;43.20;;;;;;4899173;29;20035;-73
2021/09/01 09:09:33;;;;;;;0.00;0.00;;;28.60;42.90;;;;;;4899156;29;20028;-76
2021/09/01 09:12:01;;;;;;;0.00;0.00;;;28.50;43.30;;;;;;4898837;29;20029;-73
2021/09/01 09:14:31;;;;;;;0.00;0.00;;;28.50;43.10;;;;;;4898680;29;20040;-73
2021/09/01 09:17:00;;;;;;;0.00;0.00;;;28.50;43.20;;;;;;4898467;29;20036;-74
2021/09/01 09:20:04;;;;;;;0.00;0.00;;;28.60;43.00;;;;;;4898821;29;20064;-73
2021/09/01 09:22:31;;;;;;;0.00;0.00;;;28.60;43.30;;;;;;4823070;29;20083;-73
2021/09/01 09:25:20;;;;;;;0.00;0.00;;;28.40;43.50;;;;;;4885150;29;20032;-73
2021/09/01 09:27:57;;;;;;;0.00;0.00;;;28.30;43.50;;;;;;4898616;29;20033;-74
2021/09/01 09:30:44;;;;;;;0.00;0.00;;;28.20;43.50;;;;;;4898691;29;20397;-73
2021/09/01 09:33:10;;;;;;;0.00;0.00;;;28.10;43.50;;;;;;4899032;29;20033;-75
2021/09/01 09:35:47;;;;;;;0.00;0.00;;;28.00;43.60;;;;;;4898601;29;20025;-73
2021/09/01 09:38:15;;;;;;;0.00;0.00;;;28.10;43.50;;;;;;4882489;29;20028;-75
2021/09/01 09:40:41;;;;;;;0.00;0.00;;;28.40;43.30;;;;;;4881955;29;20032;-73
2021/09/01 09:43:14;;;;;;;0.00;0.00;;;28.60;41.80;;;;;;4898612;29;20032;-75
2021/09/01 09:45:40;;;;;;;0.00;0.00;;;28.50;41.10;;;;;;4882545;29;20028;-74
2021/09/01 09:48:07;;;;;;;0.00;0.00;;;28.30;41.40;;;;;;4899514;29;20040;-75
2021/09/01 09:50:50;;;;;;;0.00;0.00;;;28.10;41.70;;;;;;4899351;29;20076;-77
2021/09/01 09:53:32;;;;;;;0.00;0.00;;;27.70;42.10;;;;;;4900873;29;20033;-75
2021/09/01 09:56:03;;;;;;;0.00;0.00;;;27.50;42.40;;;;;;4902382;29;20068;-74
2021/09/01 09:58:31;;;;;;;0.00;0.00;;;27.40;42.70;;;;;;4902607;29;20021;-74
2021/09/01 10:00:57;;;;;;;0.00;0.00;;;27.30;42.90;;;;;;4902109;29;20088;-74
2021/09/01 10:03:22;;;;;;;0.00;0.00;;;27.40;43.00;;;;;;4902214;29;20450;-74
2021/09/01 10:05:48;;;;;;;0.00;0.00;;;27.50;43.10;;;;;;4901954;29;20029;-74
2021/09/01 10:08:14;;;;;;;0.00;0.00;;;27.70;43.10;;;;;;4901938;29;20084;-75
2021/09/01 10:10:40;;;;;;;0.00;0.00;;;28.10;43.00;;;;;;4902071;29;20075;-74
2021/09/01 10:13:10;;;;;;;0.08;0.00;;;29.00;42.80;;;;;;4885167;29;20036;-75
2021/09/01 10:15:40;;;;;;;0.00;0.00;;;30.30;41.90;;;;;;4901525;29;20037;-74
2021/09/01 10:18:08;;;;;;;0.17;0.08;;;31.70;40.80;;;;;;4901548;29;20044;-74
2021/09/01 10:20:42;;;;;;;0.00;0.00;;;32.70;40.10;;;;;;4901935;29;20044;-75
2021/09/01 10:23:08;;;;;;;0.00;0.00;;;33.70;38.90;;;;;;4901717;29;20053;-75
2021/09/01 10:25:59;;;;;;;0.00;0.00;;;34.60;38.30;;;;;;4901715;29;20032;-74
2021/09/01 10:28:34;;;;;;;0.00;0.00;;;35.30;37.30;;;;;;4886365;29;20029;-74
2021/09/01 10:31:09;;;;;;;0.00;0.00;;;36.10;36.90;;;;;;4902039;29;20500;-75
2021/09/01 10:33:36;;;;;;;0.00;0.00;;;37.20;36.20;;;;;;4901721;29;20024;-73
2021/09/01 10:36:45;;;;;;;0.00;0.00;;;37.70;35.40;;;;;;4901580;29;20497;-74
2021/09/01 10:39:11;;;;;;;0.00;0.00;;;37.90;35.10;;;;;;4850586;29;20037;-76
2021/09/01 10:41:39;;;;;;;0.00;0.00;;;38.60;34.90;;;;;;4901241;29;20462;-74
2021/09/01 10:44:11;;;;;;;0.00;0.00;;;39.20;34.30;;;;;;4901291;29;20029;-74
2021/09/01 10:47:03;;;;;;;0.00;0.00;;;38.70;33.70;;;;;;4884710;29;20392;-74
2021/09/01 10:49:54;;;;;;;0.00;0.00;;;37.70;33.90;;;;;;4898389;29;20036;-74
2021/09/01 10:52:21;;;;;;;0.00;0.00;;;36.70;34.80;;;;;;4901861;29;20037;-75
2021/09/01 10:54:49;;;;;;;0.00;0.00;;;36.10;35.30;;;;;;4900526;29;20028;-76
2021/09/01 10:57:46;;;;;;;0.00;0.00;;;35.60;37.00;;;;;;4900825;29;20032;-76
2021/09/01 11:00:18;;;;;;;0.20;0.00;;;35.00;38.30;;;;;;4901462;29;20033;-75
2021/09/01 11:02:50;;;;;;;0.00;0.00;;;34.40;39.20;;;;;;4901429;29;20056;-75
2021/09/01 11:05:22;;;;;;;0.10;0.10;;;33.90;39.80;;;;;;4901099;29;20107;-73
2021/09/01 11:07:56;;;;;;;0.10;0.10;;;34.00;40.60;;;;;;4901838;29;20290;-74
2021/09/01 11:10:22;;;;;;;0.00;0.00;;;34.40;40.30;;;;;;4901551;29;20028;-73
2021/09/01 11:12:57;;;;;;;0.00;0.00;;;34.60;40.10;;;;;;4901435;29;20084;-75
2021/09/01 11:15:26;;;;;;;0.00;0.00;;;34.60;40.00;;;;;;4901096;29;20115;-75
2021/09/01 11:17:51;;;;;;;0.05;0.00;;;35.30;40.20;;;;;;4900794;29;20544;-75
2021/09/01 11:20:20;;;;;;;0.00;0.00;;;36.10;39.50;;;;;;4900941;29;20067;-76
2021/09/01 11:22:46;;;;;;;0.00;0.00;;;36.30;39.00;;;;;;4884776;29;20031;-75
2021/09/01 11:25:14;;;;;;;0.00;0.00;;;36.80;38.90;;;;;;4901236;29;20105;-75
2021/09/01 11:27:55;;;;;;;0.00;0.00;;;37.90;38.30;;;;;;4901297;29;20031;-75
2021/09/01 11:30:21;;;;;;;0.00;0.00;;;38.90;37.10;;;;;;4901209;29;20136;-74
2021/09/01 11:32:52;;;;;;;0.00;0.00;;;38.90;36.60;;;;;;4883905;29;20104;-74
2021/09/01 11:35:22;;;;;;;0.00;0.00;;;38.40;36.40;;;;;;4883863;29;20036;-74
2021/09/01 11:38:02;;;;;;;0.10;0.10;;;38.00;36.70;;;;;;4883641;29;20044;-74
2021/09/01 11:40:35;;;;;;;0.00;0.00;;;38.20;37.10;;;;;;4900788;29;20031;-75
2021/09/01 11:43:06;;;;;;;0.00;0.00;;;39.10;36.90;;;;;;4901090;29;20028;-74
2021/09/01 11:45:32;;;;;;;0.00;0.00;;;40.30;36.50;;;;;;4900508;29;20039;-75
2021/09/01 11:47:59;;;;;;;0.20;0.20;;;41.50;35.60;;;;;;4901035;29;20382;-73
2021/09/01 11:50:25;;;;;;;0.10;0.10;;;42.50;34.90;;;;;;4900566;29;20484;-75
2021/09/01 11:52:53;;;;;;;0.00;0.00;;;43.30;33.80;;;;;;4900861;29;20028;-74
2021/09/01 11:55:24;;;;;;;0.00;0.00;;;43.80;33.20;;;;;;4900558;29;20031;-74
2021/09/01 11:57:50;;;;;;;0.00;0.00;;;43.20;32.70;;;;;;4900221;29;20052;-74
2021/09/01 12:00:16;;;;;;;0.00;0.00;;;41.80;32.90;;;;;;4900204;29;20039;-73
2021/09/01 12:02:42;;;;;;;0.00;0.00;;;40.20;33.70;;;;;;4899995;29;20036;-73
2021/09/01 12:05:08;;;;;;;0.00;0.00;;;38.70;34.80;;;;;;4883661;29;20033;-73
2021/09/01 12:07:37;;;;;;;0.00;0.00;;;37.40;35.60;;;;;;4899750;29;20409;-76
2021/09/01 12:10:06;;;;;;;0.00;0.00;;;36.50;36.50;;;;;;4883470;29;20458;-74
2021/09/01 12:12:37;;;;;;;0.00;0.00;;;35.90;37.00;;;;;;4900290;29;20028;-75
2021/09/01 12:15:14;;;;;;;0.00;0.00;;;35.20;37.60;;;;;;4899432;29;20029;-75
2021/09/01 12:17:44;;;;;;;0.00;0.00;;;34.40;38.10;;;;;;4899806;29;20068;-74
2021/09/01 12:20:16;;;;;;;0.10;0.03;;;33.70;38.80;;;;;;4899878;29;20028;-74
2021/09/01 12:22:44;;;;;;;0.00;0.00;;;33.20;39.40;;;;;;4899777;29;20029;-74
2021/09/01 12:25:30;;;;;;;0.00;0.00;;;32.80;39.90;;;;;;4900042;29;20369;-75
2021/09/01 12:27:58;;;;;;;0.00;0.00;;;32.60;40.10;;;;;;4898869;29;20124;-77
2021/09/01 12:30:27;;;;;;;0.00;0.00;;;32.40;40.40;;;;;;4899701;29;20048;-75
2021/09/01 12:33:05;;;;;;;0.00;0.00;;;32.20;40.70;;;;;;4899965;29;20385;-73
2021/09/01 12:35:33;;;;;;;0.00;0.00;;;31.90;40.80;;;;;;4900348;29;20364;-77
2021/09/01 12:38:03;;;;;;;0.00;0.00;;;31.50;41.60;;;;;;4900191;29;20044;-77
2021/09/01 12:40:32;;;;;;;0.00;0.00;;;31.10;42.20;;;;;;4899357;29;20060;-76
2021/09/01 12:43:01;;;;;;;0.00;0.00;;;30.80;43.60;;;;;;4899192;29;20051;-77
2021/09/01 12:45:26;;;;;;;0.00;0.00;;;30.50;43.50;;;;;;4899571;29;20350;-76
2021/09/01 12:47:52;;;;;;;0.00;0.00;;;30.20;43.50;;;;;;4899310;29;20035;-76
2021/09/01 12:50:18;;;;;;;0.00;0.00;;;30.00;43.70;;;;;;4899243;29;20417;-77
2021/09/01 12:52:44;;;;;;;0.00;0.00;;;29.80;44.00;;;;;;4898986;29;20028;-75
2021/09/01 12:55:10;;;;;;;0.00;0.00;;;29.60;44.30;;;;;;4882542;29;20037;-75